createdAt,value
2016-09-02T00:00:14.120Z,0
2016-09-02T00:01:14.041Z,0
2016-09-02T00:02:15.560Z,0
2016-09-02T00:03:14.094Z,0
2016-09-02T00:04:14.131Z,0
2016-09-02T00:05:14.205Z,0
2016-09-02T00:06:14.176Z,0
2016-09-02T00:07:14.199Z,0
2016-09-02T00:08:15.036Z,0
2016-09-02T00:09:14.255Z,0
2016-09-02T00:10:14.286Z,0
2016-09-02T00:11:14.303Z,0
2016-09-02T00:12:14.331Z,0
2016-09-02T00:13:14.352Z,0
2016-09-02T00:14:14.384Z,0
2016-09-02T00:15:14.509Z,0
2016-09-02T00:16:14.426Z,0
2016-09-02T00:17:14.473Z,0
2016-09-02T00:18:14.485Z,0
2016-09-02T00:19:14.517Z,0
2016-09-02T00:20:14.535Z,0
2016-09-02T00:21:14.563Z,0
2016-09-02T00:22:14.602Z,0
2016-09-02T00:23:14.618Z,0
2016-09-02T00:24:14.640Z,0
2016-09-02T00:25:14.706Z,0
2016-09-02T00:26:14.708Z,0
2016-09-02T00:27:14.720Z,0
2016-09-02T00:28:14.797Z,0
2016-09-02T00:29:15.481Z,0
2016-09-02T00:30:14.942Z,0
2016-09-02T00:31:15.537Z,0
2016-09-02T00:32:14.854Z,0
2016-09-02T00:33:14.877Z,0
2016-09-02T00:34:14.990Z,0
2016-09-02T00:35:16.515Z,0
2016-09-02T00:36:15.007Z,0
2016-09-02T00:37:14.980Z,0
2016-09-02T00:38:15.006Z,0
2016-09-02T00:39:15.026Z,0
2016-09-02T00:40:15.155Z,0
2016-09-02T00:41:15.068Z,0
2016-09-02T00:42:15.107Z,0
2016-09-02T00:43:15.127Z,0
2016-09-02T00:44:15.157Z,0
2016-09-02T00:45:15.998Z,0
2016-09-02T00:46:15.252Z,0
2016-09-02T00:47:16.074Z,0
2016-09-02T00:48:15.349Z,0
2016-09-02T00:49:15.508Z,0
2016-09-02T00:50:16.079Z,0
2016-09-02T00:51:15.527Z,0
2016-09-02T00:52:15.541Z,0
2016-09-02T00:53:15.547Z,0
2016-09-02T00:54:15.540Z,0
2016-09-02T00:55:15.555Z,0
2016-09-02T00:56:15.557Z,0
2016-09-02T00:57:15.613Z,0
2016-09-02T00:58:15.713Z,0
2016-09-02T00:59:15.730Z,0
2016-09-02T01:00:16.236Z,0
2016-09-02T01:01:15.581Z,0
2016-09-02T01:02:15.609Z,0
2016-09-02T01:03:15.642Z,0
2016-09-02T01:04:15.659Z,0
2016-09-02T01:05:15.743Z,0
2016-09-02T01:06:15.704Z,0
2016-09-02T01:07:15.735Z,0
2016-09-02T01:08:15.761Z,0
2016-09-02T01:09:15.782Z,0
2016-09-02T01:10:15.871Z,0
2016-09-02T01:11:15.837Z,0
2016-09-02T01:12:15.864Z,0
2016-09-02T01:13:15.910Z,0
2016-09-02T01:14:15.913Z,0
2016-09-02T01:15:16.442Z,0
2016-09-02T01:16:16.004Z,0
2016-09-02T01:17:16.002Z,0
2016-09-02T01:18:16.736Z,0
2016-09-02T01:19:16.738Z,0
2016-09-02T01:20:16.348Z,0
2016-09-02T01:21:16.194Z,0
2016-09-02T01:22:16.348Z,0
2016-09-02T01:23:16.855Z,0
2016-09-02T01:24:16.367Z,0
2016-09-02T01:25:16.518Z,0
2016-09-02T01:26:16.390Z,0
2016-09-02T01:27:16.438Z,0
2016-09-02T01:28:16.448Z,0
2016-09-02T01:29:16.403Z,0
2016-09-02T01:30:16.549Z,0
2016-09-02T01:31:16.454Z,0
2016-09-02T01:32:16.557Z,0
2016-09-02T01:33:17.094Z,0
2016-09-02T01:34:16.479Z,0
2016-09-02T01:35:16.562Z,0
2016-09-02T01:36:16.547Z,0
2016-09-02T01:37:16.559Z,0
2016-09-02T01:38:17.237Z,0
2016-09-02T01:39:16.588Z,0
2016-09-02T01:40:16.588Z,0
2016-09-02T01:41:16.593Z,0
2016-09-02T01:42:16.642Z,0
2016-09-02T01:43:16.645Z,0
2016-09-02T01:44:16.665Z,0
2016-09-02T01:45:16.701Z,0
2016-09-02T01:46:16.717Z,0
2016-09-02T01:47:16.745Z,0
2016-09-02T01:48:16.767Z,0
2016-09-02T01:49:17.509Z,0
2016-09-02T01:50:16.824Z,0
2016-09-02T01:51:16.851Z,0
2016-09-02T01:52:16.869Z,0
2016-09-02T01:53:16.885Z,0
2016-09-02T01:54:16.916Z,0
2016-09-02T01:55:16.948Z,0
2016-09-02T01:56:16.970Z,0
2016-09-02T01:57:16.991Z,0
2016-09-02T01:58:17.019Z,0
2016-09-02T01:59:17.041Z,0
2016-09-02T02:00:17.066Z,0
2016-09-02T02:01:17.105Z,0
2016-09-02T02:02:17.138Z,0
2016-09-02T02:03:17.848Z,0
2016-09-02T02:04:17.163Z,0
2016-09-02T02:05:17.244Z,0
2016-09-02T02:06:17.224Z,0
2016-09-02T02:07:17.243Z,0
2016-09-02T02:08:17.267Z,0
2016-09-02T02:09:17.293Z,0
2016-09-02T02:10:17.321Z,0
2016-09-02T02:11:17.352Z,0
2016-09-02T02:12:17.378Z,0
2016-09-02T02:13:17.387Z,0
2016-09-02T02:14:17.416Z,0
2016-09-02T02:15:17.441Z,0
2016-09-02T02:16:17.516Z,0
2016-09-02T02:17:17.504Z,0
2016-09-02T02:18:17.518Z,0
2016-09-02T02:19:17.534Z,0
2016-09-02T02:20:17.772Z,0
2016-09-02T02:21:17.591Z,0
2016-09-02T02:22:17.665Z,0
2016-09-02T02:23:17.641Z,0
2016-09-02T02:24:17.665Z,0
2016-09-02T02:25:17.691Z,0
2016-09-02T02:26:17.714Z,0
2016-09-02T02:27:17.760Z,0
2016-09-02T02:28:17.774Z,0
2016-09-02T02:29:17.793Z,0
2016-09-02T02:30:17.813Z,0
2016-09-02T02:31:17.834Z,0
2016-09-02T02:32:17.863Z,0
2016-09-02T02:33:17.885Z,0
2016-09-02T02:34:17.906Z,0
2016-09-02T02:35:18.658Z,0
2016-09-02T02:36:17.957Z,0
2016-09-02T02:37:17.995Z,0
2016-09-02T02:38:18.003Z,0
2016-09-02T02:39:18.028Z,0
2016-09-02T02:40:18.074Z,0
2016-09-02T02:41:18.136Z,0
2016-09-02T02:42:18.104Z,0
2016-09-02T02:43:18.243Z,0
2016-09-02T02:44:18.240Z,0
2016-09-02T02:45:18.273Z,0
2016-09-02T02:46:19.000Z,0
2016-09-02T02:47:18.466Z,0
2016-09-02T02:48:18.478Z,0
2016-09-02T02:49:18.385Z,0
2016-09-02T02:50:18.418Z,0
2016-09-02T02:51:18.529Z,0
2016-09-02T02:52:18.544Z,0
2016-09-02T02:53:18.558Z,0
2016-09-02T02:54:18.565Z,0
2016-09-02T02:55:18.635Z,0
2016-09-02T02:56:18.571Z,0
2016-09-02T02:57:18.582Z,0
2016-09-02T02:58:18.587Z,0
2016-09-02T02:59:18.586Z,0
2016-09-02T03:00:18.637Z,0
2016-09-02T03:01:18.667Z,0
2016-09-02T03:02:18.595Z,0
2016-09-02T03:03:18.618Z,0
2016-09-02T03:04:18.642Z,0
2016-09-02T03:05:18.671Z,0
2016-09-02T03:06:18.693Z,0
2016-09-02T03:07:18.764Z,0
2016-09-02T03:08:18.797Z,0
2016-09-02T03:09:18.766Z,0
2016-09-02T03:10:18.808Z,0
2016-09-02T03:11:18.832Z,0
2016-09-02T03:12:18.839Z,0
2016-09-02T03:13:18.867Z,0
2016-09-02T03:14:18.882Z,0
2016-09-02T03:15:18.903Z,0
2016-09-02T03:16:18.952Z,0
2016-09-02T03:17:19.670Z,0
2016-09-02T03:18:18.991Z,0
2016-09-02T03:19:19.009Z,0
2016-09-02T03:20:19.031Z,0
2016-09-02T03:21:19.069Z,0
2016-09-02T03:22:19.079Z,0
2016-09-02T03:23:19.104Z,0
2016-09-02T03:24:19.138Z,0
2016-09-02T03:25:19.154Z,0
2016-09-02T03:26:19.181Z,0
2016-09-02T03:27:19.205Z,0
2016-09-02T03:28:19.247Z,0
2016-09-02T03:29:19.268Z,0
2016-09-02T03:30:19.277Z,0
2016-09-02T03:31:19.307Z,0
2016-09-02T03:32:19.325Z,0
2016-09-02T03:33:19.350Z,0
2016-09-02T03:34:19.380Z,0
2016-09-02T03:35:20.017Z,0
2016-09-02T03:36:19.419Z,0
2016-09-02T03:37:20.158Z,0
2016-09-02T03:38:19.471Z,0
2016-09-02T03:39:19.493Z,0
2016-09-02T03:40:19.524Z,0
2016-09-02T03:41:19.545Z,0
2016-09-02T03:42:19.568Z,0
2016-09-02T03:43:20.349Z,0
2016-09-02T03:44:19.616Z,0
2016-09-02T03:45:19.647Z,0
2016-09-02T03:46:19.663Z,0
2016-09-02T03:47:19.684Z,0
2016-09-02T03:48:20.520Z,0
2016-09-02T03:49:19.736Z,0
2016-09-02T03:50:20.612Z,0
2016-09-02T03:51:20.506Z,0
2016-09-02T03:52:19.815Z,0
2016-09-02T03:53:19.834Z,0
2016-09-02T03:54:19.913Z,0
2016-09-02T03:55:20.234Z,0
2016-09-02T03:56:19.909Z,0
2016-09-02T03:57:19.935Z,0
2016-09-02T03:58:19.953Z,0
2016-09-02T03:59:19.978Z,0
2016-09-02T04:00:20.019Z,0
2016-09-02T04:01:20.052Z,0
2016-09-02T04:02:20.050Z,0
2016-09-02T04:03:20.097Z,0
2016-09-02T04:04:20.094Z,0
2016-09-02T04:05:20.282Z,0
2016-09-02T04:06:20.153Z,0
2016-09-02T04:07:20.290Z,0
2016-09-02T04:08:20.280Z,0
2016-09-02T04:09:20.455Z,0
2016-09-02T04:10:20.539Z,0
2016-09-02T04:11:20.473Z,0
2016-09-02T04:12:20.486Z,0
2016-09-02T04:13:20.520Z,0
2016-09-02T04:14:20.491Z,0
2016-09-02T04:15:21.209Z,0
2016-09-02T04:16:20.512Z,0
2016-09-02T04:17:20.519Z,0
2016-09-02T04:18:20.528Z,0
2016-09-02T04:19:20.576Z,0
2016-09-02T04:20:20.577Z,0
2016-09-02T04:21:20.587Z,0
2016-09-02T04:22:20.596Z,0
2016-09-02T04:23:20.634Z,0
2016-09-02T04:24:20.668Z,0
2016-09-02T04:25:20.676Z,0
2016-09-02T04:26:20.695Z,0
2016-09-02T04:27:20.695Z,0
2016-09-02T04:28:20.702Z,0
2016-09-02T04:29:20.697Z,0
2016-09-02T04:30:20.763Z,0
2016-09-02T04:31:20.790Z,0
2016-09-02T04:32:20.780Z,0
2016-09-02T04:33:20.797Z,0
2016-09-02T04:34:20.816Z,0
2016-09-02T04:35:21.986Z,0
2016-09-02T04:36:20.859Z,0
2016-09-02T04:37:20.888Z,0
2016-09-02T04:38:20.903Z,0
2016-09-02T04:39:20.930Z,0
2016-09-02T04:40:21.063Z,0
2016-09-02T04:41:20.976Z,0
2016-09-02T04:42:21.766Z,0
2016-09-02T04:43:21.031Z,0
2016-09-02T04:44:21.057Z,0
2016-09-02T04:45:21.118Z,0
2016-09-02T04:46:21.096Z,0
2016-09-02T04:47:21.135Z,0
2016-09-02T04:48:21.150Z,0
2016-09-02T04:49:21.164Z,0
2016-09-02T04:50:21.200Z,0
2016-09-02T04:51:21.232Z,0
2016-09-02T04:52:21.256Z,0
2016-09-02T04:53:21.282Z,0
2016-09-02T04:54:21.289Z,0
2016-09-02T04:55:22.847Z,0
2016-09-02T04:56:21.347Z,0
2016-09-02T04:57:21.463Z,0
2016-09-02T04:58:21.390Z,0
2016-09-02T04:59:21.459Z,0
2016-09-02T05:00:21.482Z,0
2016-09-02T05:01:21.458Z,0
2016-09-02T05:02:21.586Z,0
2016-09-02T05:03:21.521Z,0
2016-09-02T05:04:21.577Z,0
2016-09-02T05:05:22.004Z,0
2016-09-02T05:06:21.578Z,0
2016-09-02T05:07:21.599Z,0
2016-09-02T05:08:21.618Z,0
2016-09-02T05:09:21.654Z,0
2016-09-02T05:10:21.784Z,0
2016-09-02T05:11:21.785Z,0
2016-09-02T05:12:21.955Z,0
2016-09-02T05:13:21.947Z,0
2016-09-02T05:14:22.014Z,0
2016-09-02T05:15:22.548Z,0
2016-09-02T05:16:21.980Z,0
2016-09-02T05:17:21.990Z,5
2016-09-02T05:18:22.121Z,5
2016-09-02T05:19:21.999Z,5
2016-09-02T05:20:22.819Z,5
2016-09-02T05:21:22.040Z,5
2016-09-02T05:22:22.159Z,5
2016-09-02T05:23:22.166Z,5
2016-09-02T05:24:22.071Z,5
2016-09-02T05:25:22.168Z,5
2016-09-02T05:26:22.125Z,5
2016-09-02T05:27:22.150Z,5
2016-09-02T05:28:22.207Z,5
2016-09-02T05:29:22.874Z,5
2016-09-02T05:30:22.173Z,5
2016-09-02T05:31:22.185Z,5
2016-09-02T05:32:22.192Z,5
2016-09-02T05:33:22.335Z,5
2016-09-02T05:34:22.283Z,5
2016-09-02T05:35:23.339Z,5
2016-09-02T05:36:22.285Z,5
2016-09-02T05:37:22.334Z,5
2016-09-02T05:38:22.398Z,5
2016-09-02T05:39:22.404Z,5
2016-09-02T05:40:22.437Z,5
2016-09-02T05:41:22.454Z,5
2016-09-02T05:42:22.481Z,5
2016-09-02T05:43:22.457Z,5
2016-09-02T05:44:22.484Z,5
2016-09-02T05:45:22.498Z,5
2016-09-02T05:46:22.533Z,5
2016-09-02T05:47:23.259Z,5
2016-09-02T05:48:22.569Z,5
2016-09-02T05:49:22.648Z,5
2016-09-02T05:50:22.666Z,5
2016-09-02T05:51:22.639Z,5
2016-09-02T05:52:22.670Z,5
2016-09-02T05:53:22.696Z,5
2016-09-02T05:54:22.807Z,5
2016-09-02T05:55:23.699Z,5
2016-09-02T05:56:22.976Z,5
2016-09-02T05:57:22.982Z,5
2016-09-02T05:58:22.982Z,5
2016-09-02T05:59:22.992Z,5
2016-09-02T06:00:23.041Z,5
2016-09-02T06:01:23.050Z,5
2016-09-02T06:02:23.048Z,5
2016-09-02T06:03:23.058Z,5
2016-09-02T06:04:23.065Z,5
2016-09-02T06:05:23.678Z,10
2016-09-02T06:06:23.789Z,10
2016-09-02T06:07:23.120Z,10
2016-09-02T06:08:23.127Z,10
2016-09-02T06:09:23.160Z,10
2016-09-02T06:10:23.638Z,10
2016-09-02T06:11:23.178Z,10
2016-09-02T06:12:23.177Z,10
2016-09-02T06:13:23.159Z,10
2016-09-02T06:14:23.178Z,10
2016-09-02T06:15:23.455Z,10
2016-09-02T06:16:23.278Z,10
2016-09-02T06:17:23.270Z,10
2016-09-02T06:18:23.380Z,10
2016-09-02T06:19:23.293Z,10
2016-09-02T06:20:24.138Z,10
2016-09-02T06:21:23.353Z,10
2016-09-02T06:22:23.372Z,10
2016-09-02T06:23:23.450Z,10
2016-09-02T06:24:23.546Z,10
2016-09-02T06:25:23.439Z,15
2016-09-02T06:26:23.472Z,15
2016-09-02T06:27:23.505Z,15
2016-09-02T06:28:23.566Z,15
2016-09-02T06:29:23.540Z,15
2016-09-02T06:30:23.559Z,15
2016-09-02T06:31:23.706Z,15
2016-09-02T06:32:23.700Z,15
2016-09-02T06:33:23.718Z,15
2016-09-02T06:34:23.749Z,15
2016-09-02T06:35:23.859Z,15
2016-09-02T06:36:23.856Z,15
2016-09-02T06:37:24.043Z,15
2016-09-02T06:38:23.874Z,15
2016-09-02T06:39:23.884Z,15
2016-09-02T06:40:23.943Z,15
2016-09-02T06:41:24.026Z,15
2016-09-02T06:42:24.034Z,15
2016-09-02T06:43:24.049Z,15
2016-09-02T06:44:24.058Z,15
2016-09-02T06:45:24.106Z,15
2016-09-02T06:46:24.065Z,15
2016-09-02T06:47:24.074Z,10
2016-09-02T06:48:24.047Z,10
2016-09-02T06:49:24.050Z,10
2016-09-02T06:50:24.055Z,10
2016-09-02T06:51:24.064Z,10
2016-09-02T06:52:24.084Z,10
2016-09-02T06:53:24.113Z,10
2016-09-02T06:54:24.136Z,10
2016-09-02T06:55:24.277Z,10
2016-09-02T06:56:24.189Z,10
2016-09-02T06:57:24.258Z,10
2016-09-02T06:58:24.227Z,10
2016-09-02T06:59:24.261Z,10
2016-09-02T07:00:24.282Z,10
2016-09-02T07:01:24.300Z,10
2016-09-02T07:02:24.325Z,10
2016-09-02T07:03:24.353Z,10
2016-09-02T07:04:24.375Z,10
2016-09-02T07:05:24.401Z,15
2016-09-02T07:06:25.135Z,15
2016-09-02T07:07:24.453Z,20
2016-09-02T07:08:24.469Z,20
2016-09-02T07:09:24.523Z,15
2016-09-02T07:10:24.842Z,15
2016-09-02T07:11:24.547Z,20
2016-09-02T07:12:24.571Z,20
2016-09-02T07:13:24.599Z,25
2016-09-02T07:14:24.615Z,25
2016-09-02T07:15:24.691Z,25
2016-09-02T07:16:24.667Z,20
2016-09-02T07:17:24.685Z,20
2016-09-02T07:18:24.712Z,25
2016-09-02T07:19:24.740Z,25
2016-09-02T07:20:24.766Z,25
2016-09-02T07:21:24.797Z,20
2016-09-02T07:22:24.812Z,20
2016-09-02T07:23:24.842Z,20
2016-09-02T07:24:24.859Z,20
2016-09-02T07:25:24.885Z,20
2016-09-02T07:26:24.909Z,20
2016-09-02T07:27:24.936Z,20
2016-09-02T07:28:24.955Z,20
2016-09-02T07:29:24.986Z,20
2016-09-02T07:30:25.012Z,15
2016-09-02T07:31:25.035Z,15
2016-09-02T07:32:25.057Z,15
2016-09-02T07:33:25.086Z,15
2016-09-02T07:34:25.118Z,15
2016-09-02T07:35:25.131Z,10
2016-09-02T07:36:25.152Z,10
2016-09-02T07:37:25.192Z,10
2016-09-02T07:38:25.204Z,10
2016-09-02T07:39:25.228Z,10
2016-09-02T07:40:25.253Z,15
2016-09-02T07:41:25.284Z,15
2016-09-02T07:42:25.297Z,15
2016-09-02T07:43:25.331Z,15
2016-09-02T07:44:25.352Z,15
2016-09-02T07:45:25.377Z,15
2016-09-02T07:46:25.403Z,15
2016-09-02T07:47:25.427Z,15
2016-09-02T07:48:25.454Z,15
2016-09-02T07:49:25.478Z,15
2016-09-02T07:50:25.500Z,15
2016-09-02T07:51:25.528Z,15
2016-09-02T07:52:25.554Z,15
2016-09-02T07:53:25.569Z,15
2016-09-02T07:54:25.610Z,15
2016-09-02T07:55:25.913Z,15
2016-09-02T07:56:25.757Z,20
2016-09-02T07:57:25.767Z,20
2016-09-02T07:58:25.785Z,20
2016-09-02T07:59:25.949Z,20
2016-09-02T08:00:26.271Z,20
2016-09-02T08:01:26.478Z,20
2016-09-02T08:02:25.972Z,15
2016-09-02T08:03:25.979Z,15
2016-09-02T08:04:25.989Z,15
2016-09-02T08:05:25.987Z,20
2016-09-02T08:06:26.038Z,20
2016-09-02T08:07:26.046Z,15
2016-09-02T08:08:26.061Z,15
2016-09-02T08:09:26.053Z,15
2016-09-02T08:10:26.094Z,15
2016-09-02T08:11:26.136Z,15
2016-09-02T08:12:26.117Z,15
2016-09-02T08:13:26.154Z,15
2016-09-02T08:14:26.154Z,15
2016-09-02T08:15:26.166Z,15
2016-09-02T08:16:26.171Z,10
2016-09-02T08:17:26.202Z,10
2016-09-02T08:18:26.201Z,10
2016-09-02T08:19:26.277Z,15
2016-09-02T08:20:26.249Z,15
2016-09-02T08:21:26.987Z,15
2016-09-02T08:22:26.302Z,15
2016-09-02T08:23:26.331Z,15
2016-09-02T08:24:26.392Z,15
2016-09-02T08:25:26.380Z,15
2016-09-02T08:26:26.406Z,15
2016-09-02T08:27:26.433Z,15
2016-09-02T08:28:26.451Z,15
2016-09-02T08:29:26.483Z,15
2016-09-02T08:30:26.511Z,10
2016-09-02T08:31:26.587Z,10
2016-09-02T08:32:26.557Z,10
2016-09-02T08:33:26.579Z,10
2016-09-02T08:34:26.620Z,10
2016-09-02T08:35:26.747Z,10
2016-09-02T08:36:26.654Z,10
2016-09-02T08:37:26.737Z,10
2016-09-02T08:38:26.725Z,10
2016-09-02T08:39:26.737Z,10
2016-09-02T08:40:26.760Z,10
2016-09-02T08:41:26.795Z,10
2016-09-02T08:42:26.813Z,10
2016-09-02T08:43:26.836Z,10
2016-09-02T08:44:26.862Z,10
2016-09-02T08:45:26.892Z,10
2016-09-02T08:46:26.964Z,10
2016-09-02T08:47:27.047Z,10
2016-09-02T08:48:27.041Z,10
2016-09-02T08:49:27.088Z,15
2016-09-02T08:50:27.149Z,15
2016-09-02T08:51:27.130Z,15
2016-09-02T08:52:27.139Z,15
2016-09-02T08:53:27.137Z,15
2016-09-02T08:54:27.128Z,15
2016-09-02T08:55:27.147Z,15
2016-09-02T08:56:27.175Z,15
2016-09-02T08:57:27.200Z,15
2016-09-02T08:58:27.224Z,15
2016-09-02T08:59:27.251Z,15
2016-09-02T09:00:27.282Z,15
2016-09-02T09:01:28.010Z,15
2016-09-02T09:02:27.338Z,15
2016-09-02T09:03:27.378Z,15
2016-09-02T09:04:28.095Z,15
2016-09-02T09:05:27.410Z,15
2016-09-02T09:06:27.437Z,15
2016-09-02T09:07:27.463Z,15
2016-09-02T09:08:27.597Z,15
2016-09-02T09:09:27.514Z,15
2016-09-02T09:10:27.709Z,15
2016-09-02T09:11:27.569Z,15
2016-09-02T09:12:27.599Z,15
2016-09-02T09:13:27.621Z,15
2016-09-02T09:14:27.807Z,15
2016-09-02T09:15:27.673Z,15
2016-09-02T09:16:27.689Z,15
2016-09-02T09:17:27.724Z,15
2016-09-02T09:18:28.451Z,15
2016-09-02T09:19:27.889Z,15
2016-09-02T09:20:27.934Z,15
2016-09-02T09:21:27.823Z,15
2016-09-02T09:22:27.907Z,15
2016-09-02T09:23:27.885Z,15
2016-09-02T09:24:27.997Z,15
2016-09-02T09:25:28.029Z,15
2016-09-02T09:26:28.087Z,15
2016-09-02T09:27:27.990Z,15
2016-09-02T09:28:28.135Z,15
2016-09-02T09:29:28.040Z,15
2016-09-02T09:30:28.071Z,15
2016-09-02T09:31:28.096Z,15
2016-09-02T09:32:28.140Z,15
2016-09-02T09:33:28.150Z,15
2016-09-02T09:34:28.174Z,15
2016-09-02T09:35:28.909Z,15
2016-09-02T09:36:28.236Z,15
2016-09-02T09:37:28.404Z,15
2016-09-02T09:38:28.287Z,15
2016-09-02T09:39:28.308Z,15
2016-09-02T09:40:28.333Z,15
2016-09-02T09:41:28.371Z,15
2016-09-02T09:42:28.395Z,15
2016-09-02T09:43:28.424Z,15
2016-09-02T09:44:29.251Z,15
2016-09-02T09:45:29.263Z,15
2016-09-02T09:46:28.509Z,15
2016-09-02T09:47:28.526Z,15
2016-09-02T09:48:29.274Z,15
2016-09-02T09:49:28.599Z,15
2016-09-02T09:50:28.614Z,15
2016-09-02T09:51:28.635Z,20
2016-09-02T09:52:28.724Z,20
2016-09-02T09:53:29.462Z,20
2016-09-02T09:54:28.738Z,20
2016-09-02T09:55:28.857Z,20
2016-09-02T09:56:28.772Z,20
2016-09-02T09:57:28.913Z,20
2016-09-02T09:58:28.957Z,20
2016-09-02T09:59:28.950Z,20
2016-09-02T10:00:29.001Z,20
2016-09-02T10:01:29.136Z,20
2016-09-02T10:02:29.153Z,20
2016-09-02T10:03:29.147Z,20
2016-09-02T10:04:29.187Z,20
2016-09-02T10:05:29.911Z,20
2016-09-02T10:06:29.213Z,20
2016-09-02T10:07:29.209Z,20
2016-09-02T10:08:29.224Z,20
2016-09-02T10:09:29.224Z,20
2016-09-02T10:10:29.239Z,20
2016-09-02T10:11:29.287Z,20
2016-09-02T10:12:29.306Z,20
2016-09-02T10:13:29.317Z,20
2016-09-02T10:14:29.326Z,20
2016-09-02T10:15:29.653Z,20
2016-09-02T10:16:29.349Z,20
2016-09-02T10:17:29.361Z,20
2016-09-02T10:18:29.415Z,20
2016-09-02T10:19:29.421Z,20
2016-09-02T10:20:34.324Z,20
2016-09-02T10:21:29.478Z,20
2016-09-02T10:22:29.507Z,20
2016-09-02T10:23:29.545Z,20
2016-09-02T10:24:29.563Z,20
2016-09-02T10:25:29.585Z,20
2016-09-02T10:26:29.631Z,20
2016-09-02T10:27:29.645Z,20
2016-09-02T10:28:29.675Z,20
2016-09-02T10:29:29.706Z,20
2016-09-02T10:30:29.734Z,20
2016-09-02T10:31:29.775Z,25
2016-09-02T10:32:29.787Z,25
2016-09-02T10:33:29.819Z,25
2016-09-02T10:34:29.849Z,25
2016-09-02T10:35:30.606Z,25
2016-09-02T10:36:29.901Z,25
2016-09-02T10:37:29.987Z,25
2016-09-02T10:38:29.965Z,25
2016-09-02T10:39:29.997Z,25
2016-09-02T10:40:30.023Z,25
2016-09-02T10:41:30.050Z,25
2016-09-02T10:42:30.084Z,25
2016-09-02T10:43:30.165Z,30
2016-09-02T10:44:31.554Z,30
2016-09-02T10:45:30.175Z,30
2016-09-02T10:46:30.204Z,30
2016-09-02T10:47:30.234Z,30
2016-09-02T10:48:30.257Z,30
2016-09-02T10:49:30.288Z,35
2016-09-02T10:50:31.338Z,35
2016-09-02T10:51:30.348Z,35
2016-09-02T10:52:30.374Z,35
2016-09-02T10:53:30.406Z,35
2016-09-02T10:54:30.433Z,35
2016-09-02T10:55:31.173Z,40
2016-09-02T10:56:30.497Z,40
2016-09-02T10:57:30.530Z,40
2016-09-02T10:58:30.562Z,40
2016-09-02T10:59:30.584Z,40
2016-09-02T11:00:30.620Z,40
2016-09-02T11:01:30.645Z,40
2016-09-02T11:02:30.678Z,35
2016-09-02T11:03:30.830Z,35
2016-09-02T11:04:30.751Z,40
2016-09-02T11:05:30.814Z,40
2016-09-02T11:06:30.806Z,40
2016-09-02T11:07:30.824Z,40
2016-09-02T11:08:30.852Z,40
2016-09-02T11:09:30.885Z,40
2016-09-02T11:10:31.257Z,40
2016-09-02T11:11:30.948Z,40
2016-09-02T11:12:31.700Z,40
2016-09-02T11:13:31.009Z,35
2016-09-02T11:14:31.048Z,40
2016-09-02T11:15:31.074Z,40
2016-09-02T11:16:31.802Z,35
2016-09-02T11:17:31.137Z,40
2016-09-02T11:18:31.159Z,40
2016-09-02T11:19:31.191Z,40
2016-09-02T11:20:31.225Z,40
2016-09-02T11:21:31.962Z,40
2016-09-02T11:22:31.284Z,40
2016-09-02T11:23:31.322Z,40
2016-09-02T11:24:31.347Z,40
2016-09-02T11:25:31.717Z,40
2016-09-02T11:26:31.431Z,40
2016-09-02T11:27:31.440Z,40
2016-09-02T11:28:31.469Z,40
2016-09-02T11:29:31.546Z,45
2016-09-02T11:30:31.533Z,45
2016-09-02T11:31:31.575Z,50
2016-09-02T11:32:31.594Z,45
2016-09-02T11:33:31.634Z,45
2016-09-02T11:34:31.657Z,40
2016-09-02T11:35:31.690Z,40
2016-09-02T11:36:31.720Z,45
2016-09-02T11:37:31.799Z,50
2016-09-02T11:38:31.778Z,50
2016-09-02T11:39:31.868Z,50
2016-09-02T11:40:31.842Z,55
2016-09-02T11:41:31.881Z,55
2016-09-02T11:42:31.914Z,55
2016-09-02T11:43:31.938Z,50
2016-09-02T11:44:31.971Z,50
2016-09-02T11:45:32.005Z,45
2016-09-02T11:46:32.042Z,40
2016-09-02T11:47:32.074Z,40
2016-09-02T11:48:32.175Z,35
2016-09-02T11:49:32.144Z,35
2016-09-02T11:50:32.207Z,40
2016-09-02T11:51:32.191Z,40
2016-09-02T11:52:32.231Z,40
2016-09-02T11:53:33.068Z,40
2016-09-02T11:54:32.279Z,45
2016-09-02T11:55:33.036Z,45
2016-09-02T11:56:32.347Z,40
2016-09-02T11:57:32.401Z,35
2016-09-02T11:58:32.418Z,35
2016-09-02T11:59:32.459Z,35
2016-09-02T12:00:32.485Z,35
2016-09-02T12:01:32.515Z,35
2016-09-02T12:02:32.545Z,30
2016-09-02T12:03:32.574Z,35
2016-09-02T12:04:32.615Z,30
2016-09-02T12:05:32.647Z,35
2016-09-02T12:06:32.674Z,40
2016-09-02T12:07:32.726Z,40
2016-09-02T12:08:32.793Z,40
2016-09-02T12:09:32.789Z,35
2016-09-02T12:10:32.811Z,35
2016-09-02T12:11:32.933Z,35
2016-09-02T12:12:32.884Z,35
2016-09-02T12:13:32.897Z,30
2016-09-02T12:14:32.931Z,35
2016-09-02T12:15:32.969Z,30
2016-09-02T12:16:32.998Z,35
2016-09-02T12:17:33.731Z,35
2016-09-02T12:18:33.127Z,35
2016-09-02T12:19:33.101Z,25
2016-09-02T12:20:33.123Z,30
2016-09-02T12:21:33.213Z,20
2016-09-02T12:22:33.196Z,20
2016-09-02T12:23:33.228Z,20
2016-09-02T12:24:33.263Z,30
2016-09-02T12:25:34.005Z,30
2016-09-02T12:26:33.338Z,30
2016-09-02T12:27:33.358Z,30
2016-09-02T12:28:33.383Z,30
2016-09-02T12:29:33.423Z,35
2016-09-02T12:30:33.453Z,35
2016-09-02T12:31:33.488Z,40
2016-09-02T12:32:33.574Z,40
2016-09-02T12:33:33.547Z,40
2016-09-02T12:34:33.578Z,30
2016-09-02T12:35:34.016Z,30
2016-09-02T12:36:33.647Z,25
2016-09-02T12:37:33.727Z,30
2016-09-02T12:38:33.710Z,30
2016-09-02T12:39:34.455Z,30
2016-09-02T12:40:33.780Z,30
2016-09-02T12:41:33.817Z,30
2016-09-02T12:42:33.847Z,30
2016-09-02T12:43:33.877Z,30
2016-09-02T12:44:33.906Z,30
2016-09-02T12:45:33.943Z,30
2016-09-02T12:46:33.983Z,30
2016-09-02T12:47:34.015Z,25
2016-09-02T12:48:34.049Z,25
2016-09-02T12:49:34.076Z,30
2016-09-02T12:50:34.214Z,25
2016-09-02T12:51:34.159Z,25
2016-09-02T12:52:34.177Z,25
2016-09-02T12:53:34.918Z,30
2016-09-02T12:54:34.242Z,30
2016-09-02T12:55:34.274Z,30
2016-09-02T12:56:34.327Z,30
2016-09-02T12:57:34.340Z,30
2016-09-02T12:58:34.368Z,30
2016-09-02T12:59:34.407Z,30
2016-09-02T13:00:34.489Z,30
2016-09-02T13:01:34.473Z,30
2016-09-02T13:02:34.556Z,30
2016-09-02T13:03:34.544Z,30
2016-09-02T13:04:34.568Z,30
2016-09-02T13:05:34.604Z,30
2016-09-02T13:06:34.633Z,30
2016-09-02T13:07:34.687Z,30
2016-09-02T13:08:34.701Z,30
2016-09-02T13:09:34.730Z,30
2016-09-02T13:10:34.779Z,30
2016-09-02T13:11:36.219Z,30
2016-09-02T13:12:34.836Z,30
2016-09-02T13:13:35.575Z,30
2016-09-02T13:14:34.911Z,30
2016-09-02T13:15:34.934Z,30
2016-09-02T13:16:35.018Z,30
2016-09-02T13:17:35.004Z,30
2016-09-02T13:18:35.086Z,40
2016-09-02T13:19:35.069Z,35
2016-09-02T13:20:35.105Z,35
2016-09-02T13:21:35.141Z,35
2016-09-02T13:22:35.886Z,35
2016-09-02T13:23:35.203Z,35
2016-09-02T13:24:35.245Z,40
2016-09-02T13:25:35.279Z,40
2016-09-02T13:26:35.305Z,35
2016-09-02T13:27:35.336Z,35
2016-09-02T13:28:35.420Z,30
2016-09-02T13:29:36.115Z,35
2016-09-02T13:30:35.449Z,35
2016-09-02T13:31:35.517Z,30
2016-09-02T13:32:35.506Z,35
2016-09-02T13:33:35.538Z,35
2016-09-02T13:34:35.573Z,35
2016-09-02T13:35:37.705Z,35
2016-09-02T13:36:35.693Z,35
2016-09-02T13:37:35.718Z,35
2016-09-02T13:38:35.711Z,35
2016-09-02T13:39:35.736Z,35
2016-09-02T13:40:35.770Z,35
2016-09-02T13:41:37.220Z,35
2016-09-02T13:42:35.916Z,35
2016-09-02T13:43:35.918Z,30
2016-09-02T13:44:35.914Z,40
2016-09-02T13:45:35.940Z,40
2016-09-02T13:46:35.969Z,40
2016-09-02T13:47:36.009Z,35
2016-09-02T13:48:36.042Z,35
2016-09-02T13:49:36.179Z,40
2016-09-02T13:50:36.181Z,35
2016-09-02T13:51:36.859Z,35
2016-09-02T13:52:36.183Z,35
2016-09-02T13:53:36.282Z,35
2016-09-02T13:54:36.255Z,35
2016-09-02T13:55:36.337Z,35
2016-09-02T13:56:36.316Z,35
2016-09-02T13:57:36.348Z,30
2016-09-02T13:58:36.383Z,30
2016-09-02T13:59:36.463Z,30
2016-09-02T14:00:36.448Z,30
2016-09-02T14:01:36.482Z,30
2016-09-02T14:02:36.527Z,30
2016-09-02T14:03:36.565Z,30
2016-09-02T14:04:37.301Z,35
2016-09-02T14:05:36.635Z,35
2016-09-02T14:06:36.652Z,35
2016-09-02T14:07:36.682Z,35
2016-09-02T14:08:36.720Z,35
2016-09-02T14:09:36.764Z,30
2016-09-02T14:10:36.856Z,30
2016-09-02T14:11:37.547Z,30
2016-09-02T14:12:36.854Z,30
2016-09-02T14:13:36.887Z,35
2016-09-02T14:14:36.924Z,35
2016-09-02T14:15:36.967Z,35
2016-09-02T14:16:36.994Z,35
2016-09-02T14:17:37.033Z,35
2016-09-02T14:18:37.062Z,35
2016-09-02T14:19:37.098Z,35
2016-09-02T14:20:37.137Z,35
2016-09-02T14:21:37.168Z,35
2016-09-02T14:22:37.276Z,35
2016-09-02T14:23:37.345Z,35
2016-09-02T14:24:37.284Z,35
2016-09-02T14:25:37.362Z,35
2016-09-02T14:26:37.365Z,35
2016-09-02T14:27:37.401Z,35
2016-09-02T14:28:37.441Z,35